Snow/Ice From: 17-12-2017 10:00 Until: 18-12-2017 06:00 warning for: Snow/Ice Level: Yellow info button

Although rather usual in this region, locally or potentially dangerous phenomena are expected. (such as local winds, summer thunderstorms, rising streams or high waves) Be aware and pay attention to the latest weather updates, especially if you carry out activities exposed to weather or close to a stream or shoreline. 


Meteo18 Weather Cam more information Meteo18 Weather Cam


Thunder radar more information blitzortung!


warning for Snow/Ice more information rain snow radar


Visit our other weather sites:

Template documentation
and downloads

And another site



Weather Underground History page Text

Daily Summary for March 25, 2017 Units:  English    Metric   Both
« Previous Day
Next Day »
Daily Weekly Monthly Yearly Custom
  High: Low: Average:
Temperature: 62.6 °F 43.5 °F 52.2 °F
Dew Point: 50.5 °F 41.4 °F 45.3 °F
Humidity: 92 % 63 % 78 %
Wind Speed: 19 mph 0 mph 5.3 mph
Wind Gust: 22 mph - -
Wind:- - East
Pressure: 30.2 in 30 in -
Precipitation: 0 in    
Historical Graphs
 
 
Tabular Data for March 25, 2017
Time Temperature Dew Point Pressure Wind Wind Speed Wind Gust Humidity Rainfall Rate (Hourly)
00:02 48.7 °F 45.3 °F 30.2 in NNE 4 mph 12 mph 88 % 0 in
00:07 48.6 °F 45.1 °F 30.2 in North 12 mph 12 mph 88 % 0 in
00:12 48.6 °F 45.1 °F 30.2 in NE 1 mph 12 mph 88 % 0 in
00:17 48.6 °F 45.1 °F 30.2 in NE 10 mph 13 mph 88 % 0 in
00:22 48.6 °F 45.1 °F 30.2 in NNW 4 mph 14 mph 88 % 0 in
00:32 48.2 °F 44.8 °F 30.2 in NE 8 mph 14 mph 88 % 0 in
00:37 48 °F 44.6 °F 30.2 in NNE 3 mph 14 mph 88 % 0 in
00:42 48 °F 44.6 °F 30.2 in North 9 mph 14 mph 88 % 0 in
00:52 48 °F 44.6 °F 30.2 in North 5 mph 14 mph 88 % 0 in
00:57 47.8 °F 44.4 °F 30.2 in NNE 4 mph 16 mph 88 % 0 in
01:02 47.7 °F 44.2 °F 30.2 in NNE 5 mph 16 mph 88 % 0 in
01:12 47.7 °F 44.2 °F 30.2 in North 4 mph 16 mph 88 % 0 in
01:17 47.7 °F 44.2 °F 30.2 in NE 3 mph 15 mph 88 % 0 in
01:22 47.5 °F 44.1 °F 30.2 in NW 5 mph 15 mph 88 % 0 in
01:27 47.5 °F 44.1 °F 30.2 in NNE 8 mph 15 mph 88 % 0 in
01:32 47.5 °F 44.1 °F 30.2 in NNE 8 mph 15 mph 88 % 0 in
01:37 47.5 °F 44.1 °F 30.2 in North 5 mph 14 mph 88 % 0 in
01:42 47.3 °F 44.2 °F 30.2 in NNE 12 mph 14 mph 89 % 0 in
01:47 47.3 °F 44.2 °F 30.2 in NW 8 mph 14 mph 89 % 0 in
01:52 47.3 °F 44.2 °F 30.2 in NE 6 mph 14 mph 89 % 0 in
01:57 47.1 °F 44.1 °F 30.2 in NNE 4 mph 16 mph 89 % 0 in
02:02 47.3 °F 43.9 °F 30.2 in NNE 11 mph 16 mph 88 % 0 in
02:12 47.3 °F 43.9 °F 30.2 in NNE 9 mph 16 mph 88 % 0 in
02:17 47.1 °F 44.1 °F 30.2 in NNW 3 mph 19 mph 89 % 0 in
02:22 46.9 °F 43.9 °F 30.2 in North 2 mph 19 mph 89 % 0 in
02:27 46.8 °F 43.7 °F 30.2 in North 4 mph 12 mph 89 % 0 in
02:32 46.8 °F 44.1 °F 30.2 in NE 5 mph 12 mph 90 % 0 in
02:37 46.8 °F 44.1 °F 30.2 in NNE 10 mph 13 mph 90 % 0 in
02:42 46.6 °F 43.9 °F 30.2 in NNW 4 mph 13 mph 90 % 0 in
02:52 46.8 °F 43.7 °F 30.2 in North 4 mph 13 mph 89 % 0 in
02:57 46.6 °F 43.5 °F 30.2 in NE 7 mph 17 mph 89 % 0 in
03:02 46.4 °F 43.3 °F 30.2 in North 7 mph 17 mph 89 % 0 in
03:12 46.2 °F 43.5 °F 30.2 in NW 4 mph 17 mph 90 % 0 in
03:17 46.2 °F 43.5 °F 30.2 in NE 3 mph 15 mph 90 % 0 in
03:22 46.2 °F 43.5 °F 30.2 in NNE 10 mph 15 mph 90 % 0 in
03:32 45.9 °F 43.2 °F 30.1 in Calm   11 mph 90 % 0 in
03:42 45.9 °F 43.2 °F 30.1 in NE 12 mph 12 mph 90 % 0 in
03:52 46 °F 43.3 °F 30.1 in ENE 13 mph 13 mph 90 % 0 in
03:57 46.2 °F 43.2 °F 30.1 in NE 15 mph 18 mph 89 % 0 in
04:02 46.2 °F 43.2 °F 30.1 in NNE 12 mph 18 mph 89 % 0 in
04:12 46.2 °F 43.2 °F 30.1 in North 7 mph 18 mph 89 % 0 in
04:17 46.2 °F 43.2 °F 30.1 in North 4 mph 19 mph 89 % 0 in
04:22 46 °F 43 °F 30.1 in NNE 10 mph 19 mph 89 % 0 in
04:27 46 °F 43 °F 30.1 in NE 9 mph 16 mph 89 % 0 in
04:32 45.9 °F 42.8 °F 30.1 in NNE 10 mph 16 mph 89 % 0 in
04:42 45.7 °F 43 °F 30.1 in NE 6 mph 17 mph 90 % 0 in
04:47 45.5 °F 42.8 °F 30.1 in NNE 5 mph 17 mph 90 % 0 in
04:52 45.3 °F 42.6 °F 30.1 in NE 6 mph 17 mph 90 % 0 in
04:57 45.3 °F 42.6 °F 30.1 in NE 5 mph 17 mph 90 % 0 in
05:02 45.1 °F 42.4 °F 30.1 in ENE 10 mph 15 mph 90 % 0 in
05:12 45.1 °F 42.6 °F 30.1 in NNE 7 mph 10 mph 91 % 0 in
05:17 45.1 °F 42.4 °F 30.1 in NNE 13 mph 13 mph 90 % 0 in
05:22 45.1 °F 42.4 °F 30.1 in NE 1 mph 13 mph 90 % 0 in
05:32 45 °F 42.3 °F 30.1 in North 2 mph 13 mph 90 % 0 in
05:37 44.8 °F 42.3 °F 30.1 in NNE 4 mph 13 mph 91 % 0 in
05:42 44.6 °F 42.1 °F 30.1 in NE 6 mph 11 mph 91 % 0 in
05:47 44.4 °F 41.9 °F 30.1 in Calm   11 mph 91 % 0 in
05:52 44.4 °F 41.9 °F 30.1 in NNE 2 mph 11 mph 91 % 0 in
05:57 44.2 °F 41.7 °F 30.1 in NNE 3 mph 11 mph 91 % 0 in
06:02 44.4 °F 41.9 °F 30.1 in NE 3 mph 8 mph 91 % 0 in
06:12 44.4 °F 41.9 °F 30.1 in NNE 5 mph 11 mph 91 % 0 in
06:17 44.1 °F 41.5 °F 30.1 in NNE 5 mph 11 mph 91 % 0 in
06:22 44.1 °F 41.5 °F 30.1 in NNE 4 mph 11 mph 91 % 0 in
06:32 43.5 °F 41.4 °F 30.1 in NE 2 mph 11 mph 92 % 0 in
06:42 43.9 °F 41.7 °F 30.1 in NNE 7 mph 9 mph 92 % 0 in
06:47 44.1 °F 41.9 °F 30.1 in NNE 1 mph 9 mph 92 % 0 in
06:52 44.1 °F 41.5 °F 30.1 in NNE 5 mph 12 mph 91 % 0 in
07:02 43.9 °F 41.4 °F 30.1 in NNE 10 mph 12 mph 91 % 0 in
07:12 44.1 °F 41.5 °F 30.1 in ENE 3 mph 14 mph 91 % 0 in
07:17 44.2 °F 41.7 °F 30.1 in NE 3 mph 14 mph 91 % 0 in
07:22 44.4 °F 41.9 °F 30.1 in NNE 7 mph 14 mph 91 % 0 in
07:32 44.4 °F 41.7 °F 30.1 in NNW 5 mph 13 mph 90 % 0 in
07:42 44.8 °F 42.1 °F 30.1 in NE 14 mph 18 mph 90 % 0 in
07:47 44.8 °F 42.1 °F 30.1 in NE 10 mph 18 mph 90 % 0 in
07:57 45 °F 41.9 °F 30.1 in NNE 10 mph 18 mph 89 % 0 in
08:02 45.1 °F 42.1 °F 30.1 in North 8 mph 18 mph 89 % 0 in
08:12 45.3 °F 42.3 °F 30.1 in NE 12 mph 18 mph 89 % 0 in
08:17 45.5 °F 42.4 °F 30.1 in NNE 10 mph 18 mph 89 % 0 in
08:22 45.7 °F 42.6 °F 30.1 in NE 13 mph 18 mph 89 % 0 in
08:32 46 °F 42.6 °F 30.1 in NNE 11 mph 16 mph 88 % 0 in
08:42 46.2 °F 42.6 °F 30.1 in NE 13 mph 17 mph 87 % 0 in
08:47 46.4 °F 42.8 °F 30.1 in North 9 mph 17 mph 87 % 0 in
08:52 46.8 °F 43.2 °F 30.1 in NE 8 mph 19 mph 87 % 0 in
09:02 47.1 °F 43.5 °F 30.1 in NNE 11 mph 19 mph 87 % 0 in
09:12 47.8 °F 43.9 °F 30.1 in NNE 8 mph 17 mph 86 % 0 in
09:17 48 °F 43.7 °F 30.1 in NE 6 mph 17 mph 85 % 0 in
09:22 48.4 °F 44.1 °F 30.1 in ENE 7 mph 18 mph 85 % 0 in
09:32 48.6 °F 43.9 °F 30.1 in NE 12 mph 17 mph 84 % 0 in
09:37 48.7 °F 44.1 °F 30.1 in ENE 8 mph 17 mph 84 % 0 in
09:42 48.9 °F 44.1 °F 30.1 in NE 5 mph 18 mph 83 % 0 in
09:52 49.3 °F 44.4 °F 30.1 in East 10 mph 18 mph 83 % 0 in
09:57 49.6 °F 44.8 °F 30.1 in NNE 14 mph 18 mph 83 % 0 in
10:02 49.6 °F 44.4 °F 30.1 in NE 7 mph 18 mph 82 % 0 in
10:12 50.2 °F 45 °F 30.1 in NE 15 mph 20 mph 82 % 0 in
10:17 50.4 °F 45.1 °F 30.1 in ENE 12 mph 20 mph 82 % 0 in
10:22 50.4 °F 45.1 °F 30.1 in NNE 15 mph 17 mph 82 % 0 in
10:27 50.5 °F 45.3 °F 30.1 in NNE 13 mph 17 mph 82 % 0 in
10:32 50.5 °F 45 °F 30.1 in NE 8 mph 17 mph 81 % 0 in
10:42 51.1 °F 45.1 °F 30.1 in NE 9 mph 19 mph 80 % 0 in
10:47 51.4 °F 45.5 °F 30.1 in NNE 5 mph 19 mph 80 % 0 in
10:52 52 °F 46.4 °F 30.1 in NE 12 mph 15 mph 81 % 0 in
10:57 52 °F 45.7 °F 30.1 in NE 12 mph 15 mph 79 % 0 in
11:02 52 °F 45.7 °F 30.1 in North 19 mph 19 mph 79 % 0 in
11:12 52.9 °F 46.6 °F 30.1 in NNE 12 mph 19 mph 79 % 0 in
11:17 52.9 °F 46.2 °F 30.1 in NE 8 mph 19 mph 78 % 0 in
11:27 53.2 °F 46.6 °F 30.1 in NE 7 mph 17 mph 78 % 0 in
11:32 53.4 °F 46.4 °F 30 in NE 11 mph 17 mph 77 % 0 in
11:37 53.6 °F 46.9 °F 30 in ENE 9 mph 17 mph 78 % 0 in
11:42 54 °F 46.9 °F 30 in ENE 14 mph 19 mph 77 % 0 in
11:52 54.1 °F 46.8 °F 30 in NE 17 mph 22 mph 76 % 0 in
11:57 54.5 °F 47.1 °F 30 in NE 10 mph 22 mph 76 % 0 in
12:02 54.9 °F 47.1 °F 30.1 in NE 10 mph 20 mph 75 % 0 in
12:12 55.2 °F 47.1 °F 30 in NNE 10 mph 19 mph 74 % 0 in
12:17 55.4 °F 46.9 °F 30 in ENE 12 mph 19 mph 73 % 0 in
12:22 55.6 °F 47.5 °F 30 in NNE 7 mph 18 mph 74 % 0 in
12:32 56.1 °F 48 °F 30 in NE 13 mph 18 mph 74 % 0 in
12:37 56.3 °F 47.8 °F 30 in NNE 6 mph 18 mph 73 % 0 in
12:42 56.7 °F 47.3 °F 30 in North 17 mph 18 mph 71 % 0 in
12:47 56.8 °F 47.5 °F 30 in NE 13 mph 18 mph 71 % 0 in
12:52 57.4 °F 48.4 °F 30 in NE 8 mph 20 mph 72 % 0 in
13:02 57.6 °F 48.2 °F 30 in East 8 mph 20 mph 71 % 0 in
13:12 57.9 °F 48.2 °F 30 in NE 8 mph 18 mph 70 % 0 in
13:17 58.1 °F 48.4 °F 30 in NNE 9 mph 17 mph 70 % 0 in
13:22 58.1 °F 47.1 °F 30 in NE 6 mph 17 mph 67 % 0 in
13:32 58.5 °F 48.4 °F 30 in ENE 12 mph 18 mph 69 % 0 in
13:37 58.6 °F 48.9 °F 30 in ENE 6 mph 18 mph 70 % 0 in
13:42 59 °F 48.4 °F 30 in NE 15 mph 15 mph 68 % 0 in
13:47 59 °F 48.4 °F 30 in NE 11 mph 17 mph 68 % 0 in
13:52 59.4 °F 48.7 °F 30 in NE 8 mph 17 mph 68 % 0 in
14:02 59.5 °F 48.6 °F 30 in NNE 11 mph 15 mph 67 % 0 in
14:12 59.4 °F 48.4 °F 30 in NNE 9 mph 17 mph 67 % 0 in
14:17 59.7 °F 49.1 °F 30 in ENE 9 mph 17 mph 68 % 0 in
14:22 60.1 °F 49.1 °F 30 in NE 10 mph 16 mph 67 % 0 in
14:32 60.4 °F 49.1 °F 30 in ENE 9 mph 15 mph 66 % 0 in
14:37 60.6 °F 49.3 °F 30 in ENE 11 mph 14 mph 66 % 0 in
14:42 61 °F 50 °F 30 in NE 6 mph 18 mph 67 % 0 in
14:52 61.2 °F 48.4 °F 30 in NE 5 mph 18 mph 63 % 0 in
14:57 61.2 °F 48.9 °F 30 in ENE 6 mph 13 mph 64 % 0 in
15:02 61.5 °F 49.6 °F 30 in ENE 6 mph 13 mph 65 % 0 in
15:12 61.9 °F 50 °F 30 in ENE 3 mph 12 mph 65 % 0 in
15:17 61.7 °F 49.5 °F 30 in SSE 3 mph 12 mph 64 % 0 in
15:22 61.9 °F 49.1 °F 30 in NNE 1 mph 11 mph 63 % 0 in
15:32 62.2 °F 49.5 °F 30 in ENE 2 mph 11 mph 63 % 0 in
15:37 62.2 °F 49.5 °F 30 in East 1 mph 5 mph 63 % 0 in
15:42 62.4 °F 50.5 °F 30 in ENE 2 mph 4 mph 65 % 0 in
15:47 62.2 °F 49.5 °F 30 in ESE 2 mph 5 mph 63 % 0 in
15:52 62.1 °F 49.3 °F 30 in East 1 mph 5 mph 63 % 0 in
15:57 62.1 °F 49.3 °F 30 in East 1 mph 5 mph 63 % 0 in
16:02 62.4 °F 49.6 °F 30 in Calm   5 mph 63 % 0 in
16:12 62.6 °F 49.8 °F 30 in East 1 mph 3 mph 63 % 0 in
16:17 62.4 °F 50 °F 30 in NE 1 mph 4 mph 64 % 0 in
16:22 62.2 °F 49.5 °F 30 in ESE 1 mph 4 mph 63 % 0 in
16:32 60.8 °F 50.2 °F 30 in South 7 mph 7 mph 68 % 0 in
16:42 59.7 °F 48.7 °F 30 in SSW 10 mph 18 mph 67 % 0 in
16:47 59.4 °F 48.4 °F 30 in South 6 mph 14 mph 67 % 0 in
16:52 59 °F 47.7 °F 30 in SSE 5 mph 14 mph 66 % 0 in
16:57 58.8 °F 47.5 °F 30 in SSW 2 mph 13 mph 66 % 0 in
17:02 58.6 °F 47.7 °F 30 in South 2 mph 13 mph 67 % 0 in
17:12 58.5 °F 48 °F 30 in SSE 3 mph 10 mph 68 % 0 in
17:17 58.3 °F 47.8 °F 30 in SSW 2 mph 8 mph 68 % 0 in
17:22 58.3 °F 46.9 °F 30 in SSE 2 mph 5 mph 66 % 0 in
17:32 58.1 °F 46.8 °F 30 in South 1 mph 5 mph 66 % 0 in
17:37 57.9 °F 46.9 °F 30 in WSW 1 mph 5 mph 67 % 0 in
17:42 57.9 °F 46.2 °F 30 in Calm   3 mph 65 % 0 in
17:47 57.9 °F 46.2 °F 30 in Calm   2 mph 65 % 0 in
17:52 57.9 °F 46.2 °F 30 in Calm   2 mph 65 % 0 in
17:57 57.9 °F 46.6 °F 30 in Calm   2 mph 66 % 0 in
18:02 57.9 °F 46.6 °F 30 in Calm   1 mph 66 % 0 in
18:12 57.9 °F 46.9 °F 30 in Calm     67 % 0 in
18:17 57.7 °F 47.3 °F 30 in Calm     68 % 0 in
18:22 57.6 °F 47.5 °F 30 in Calm     69 % 0 in
18:32 57.4 °F 46.9 °F 30 in Calm     68 % 0 in
18:42 57.2 °F 47.5 °F 30 in Calm     70 % 0 in
18:52 56.8 °F 47.8 °F 30 in East 2 mph 4 mph 72 % 0 in
18:57 56.8 °F 47.8 °F 30 in ESE 2 mph 4 mph 72 % 0 in
19:02 56.7 °F 47.7 °F 30 in East 2 mph 5 mph 72 % 0 in
19:07 56.5 °F 47.5 °F 30 in SE 2 mph 5 mph 72 % 0 in
19:12 56.5 °F 46.8 °F 30 in Calm   5 mph 70 % 0 in
19:17 56.3 °F 46.9 °F 30 in East 2 mph 4 mph 71 % 0 in
19:22 56.3 °F 46.6 °F 30 in East 2 mph 4 mph 70 % 0 in
19:32 56.1 °F 46.4 °F 30 in Calm   3 mph 70 % 0 in
19:42 55.8 °F 46.6 °F 30 in Calm   3 mph 71 % 0 in
19:47 55.8 °F 46.9 °F 30 in ESE 1 mph 3 mph 72 % 0 in
19:52 55.6 °F 46.8 °F 30 in Calm   3 mph 72 % 0 in
19:57 55.6 °F 46 °F 30 in ENE 2 mph 3 mph 70 % 0 in
20:02 55.8 °F 45.3 °F 30 in Calm   3 mph 68 % 0 in
20:12 55.8 °F 45 °F 30 in Calm   4 mph 67 % 0 in
20:22 55.9 °F 44.8 °F 30 in East 1 mph 2 mph 66 % 0 in
20:27 55.9 °F 44.4 °F 30 in East 2 mph 2 mph 65 % 0 in
20:32 55.8 °F 44.6 °F 30 in Calm   2 mph 66 % 0 in
20:37 55.6 °F 44.4 °F 30 in Calm   3 mph 66 % 0 in
20:42 55.4 °F 44.6 °F 30 in Calm   3 mph 67 % 0 in
20:47 55.2 °F 44.8 °F 30 in Calm   2 mph 68 % 0 in
20:52 55 °F 45.1 °F 30 in Calm   2 mph 69 % 0 in
20:57 54.7 °F 45.5 °F 30 in Calm   1 mph 71 % 0 in
21:02 54.7 °F 44.8 °F 30 in Calm   1 mph 69 % 0 in
21:12 54.5 °F 44.6 °F 30 in SSE 1 mph 2 mph 69 % 0 in
21:17 54.3 °F 44.8 °F 30 in Calm   2 mph 70 % 0 in
21:22 54.1 °F 45.3 °F 30 in Calm   1 mph 72 % 0 in
21:27 54 °F 44.8 °F 30 in Calm   1 mph 71 % 0 in
21:32 54 °F 44.8 °F 30.1 in East 1 mph 1 mph 71 % 0 in
21:37 54 °F 44.4 °F 30.1 in ENE 1 mph 2 mph 70 % 0 in
21:42 54 °F 44.1 °F 30.1 in Calm   2 mph 69 % 0 in
21:47 54.3 °F 44.4 °F 30.1 in SE 1 mph 2 mph 69 % 0 in
21:52 54.1 °F 43.9 °F 30 in SE 2 mph 3 mph 68 % 0 in
21:57 54.1 °F 44.2 °F 30 in SSE 1 mph 3 mph 69 % 0 in
22:02 54 °F 44.8 °F 30 in South 2 mph 3 mph 71 % 0 in
22:12 53.8 °F 45.3 °F 30.1 in Calm   2 mph 73 % 0 in
22:17 53.4 °F 45.3 °F 30.1 in Calm   2 mph 74 % 0 in
22:22 53.2 °F 45.1 °F 30 in Calm   2 mph 74 % 0 in
22:32 53.1 °F 45.3 °F 30 in Calm   1 mph 75 % 0 in
22:37 52.9 °F 45.1 °F 30 in Calm   1 mph 75 % 0 in
22:42 52.7 °F 45 °F 30 in Calm   1 mph 75 % 0 in
22:52 52 °F 45 °F 30.1 in ENE 1 mph 1 mph 77 % 0 in
22:57 51.6 °F 45.3 °F 30.1 in Calm   2 mph 79 % 0 in
23:02 51.6 °F 45.3 °F 30.1 in Calm   2 mph 79 % 0 in
23:12 51.6 °F 45.3 °F 30.1 in Calm   2 mph 79 % 0 in
23:17 51.6 °F 45.3 °F 30.1 in Calm   1 mph 79 % 0 in
23:22 51.4 °F 45.1 °F 30.1 in Calm   1 mph 79 % 0 in
23:27 51.1 °F 45.1 °F 30.1 in Calm   1 mph 80 % 0 in
23:32 50.9 °F 45.3 °F 30.1 in Calm   1 mph 81 % 0 in
23:37 50.7 °F 45.1 °F 30.1 in Calm     81 % 0 in
23:42 50.5 °F 45.3 °F 30.1 in Calm     82 % 0 in
23:52 50.5 °F 45.3 °F 30.1 in Calm   1 mph 82 % 0 in
23:57 50.5 °F 45.3 °F 30.1 in Calm   1 mph 82 % 0 in
Meteo18
Compliments of Weather Underground - 4 mb

Script developed by  Jim McMurry - jmcmurry@mwt.net Adapted for the template by  Wim van der Kuil - Leuven-Template.eu

You find our weather info also at:

European Weather Network

Weather Underground

Equipment we use:

Weather-station
Davis Vue

Weather-program
Meteohub

Weather-server
Raspberry PI 2 B+

Provider
1 and 1

Davis Vue

Meteohub

Raspberry PI 2 B+

1 and 1